Time;durP1;ratioP1;P1;durP2;ratioP2;P2;SDS_P1;SDS_P2;PMS_P1;PMS_P2;Temp;Humidity;BMP_temperature;BMP_pressure;BME280_temperature;BME280_humidity;BME280_pressure;Samples;Min_cycle;Max_cycle;Signal;HPM_P1;HPM_P2
2023/05/02 00:00:30;;;;;;;4.47;4.07;;;13.60;90.00;;;13.74;56.89;95261.06;4997108;28;20493;-72
2023/05/02 00:02:58;;;;;;;3.97;3.67;;;13.60;90.20;;;13.71;58.21;95258.72;4995290;28;20470;-72
2023/05/02 00:05:25;;;;;;;3.60;3.30;;;13.60;90.80;;;13.70;57.28;95258.88;4989798;28;20971;-57
2023/05/02 00:07:52;;;;;;;3.90;3.50;;;13.50;90.40;;;13.69;57.05;95259.84;4991256;28;20514;-58
2023/05/02 00:10:20;;;;;;;6.77;3.53;;;13.50;90.40;;;13.68;57.32;95263.47;4989286;28;20493;-57
2023/05/02 00:12:47;;;;;;;7.30;3.43;;;13.60;90.80;;;13.67;57.35;95261.81;4997196;28;20542;-73
2023/05/02 00:15:16;;;;;;;3.13;2.93;;;13.50;90.70;;;13.68;56.98;95259.03;4996668;28;20458;-55
2023/05/02 00:17:43;;;;;;;3.83;3.20;;;13.50;90.80;;;13.68;57.33;95264.31;4997354;28;20481;-56
2023/05/02 00:20:11;;;;;;;5.53;3.50;;;13.50;90.70;;;13.69;57.64;95258.03;5002206;28;21228;-71
2023/05/02 00:22:39;;;;;;;4.70;3.53;;;13.50;91.30;;;13.71;57.34;95269.28;4997337;28;20469;-58
2023/05/02 00:25:07;;;;;;;4.30;4.00;;;13.50;91.20;;;13.73;57.29;95277.06;4994960;28;20862;-57
2023/05/02 00:27:34;;;;;;;3.70;3.40;;;13.60;91.30;;;13.74;57.48;95279.56;4996309;28;21110;-56
2023/05/02 00:30:02;;;;;;;4.80;3.67;;;13.60;91.30;;;13.75;58.02;95275.09;4995510;28;20510;-57
2023/05/02 00:32:30;;;;;;;5.60;3.37;;;13.60;91.70;;;13.75;57.55;95273.28;4993738;28;20486;-73
2023/05/02 00:34:58;;;;;;;4.63;4.30;;;13.60;91.70;;;13.77;57.87;95278.44;4996117;28;20478;-73
2023/05/02 00:37:27;;;;;;;5.33;4.90;;;13.60;91.70;;;13.78;57.55;95285.38;4997640;28;20470;-74
2023/05/02 00:39:54;;;;;;;5.77;4.23;;;13.60;91.60;;;13.77;57.50;95278.44;4988863;28;20595;-73
2023/05/02 00:42:22;;;;;;;7.47;3.93;;;13.60;91.70;;;13.77;57.47;95289.00;4994639;28;20541;-73
2023/05/02 00:44:49;;;;;;;6.00;5.03;;;13.60;91.70;;;13.76;57.18;95295.28;4998748;28;20831;-57
2023/05/02 00:47:16;;;;;;;4.37;3.83;;;13.60;91.70;;;13.74;57.64;95291.94;4999340;28;20477;-73
2023/05/02 00:49:45;;;;;;;4.57;4.17;;;13.60;91.80;;;13.74;57.51;95289.28;4995547;28;20462;-57
2023/05/02 00:52:12;;;;;;;4.57;4.17;;;13.60;91.90;;;13.73;57.67;95299.06;4995739;28;20496;-73
2023/05/02 00:54:40;;;;;;;4.53;3.80;;;13.60;92.00;;;13.72;57.76;95291.25;4994023;28;20442;-72
2023/05/02 00:57:07;;;;;;;8.50;3.90;;;13.50;92.10;;;13.71;57.97;95300.16;4995676;28;20480;-56
2023/05/02 00:59:35;;;;;;;3.93;3.70;;;13.50;92.10;;;13.68;57.63;95296.03;4993412;28;20523;-57
2023/05/02 01:02:13;;;;;;;6.20;3.70;;;13.50;92.20;;;13.64;57.98;95294.66;4998388;28;20490;-57
2023/05/02 01:04:50;;;;;;;3.70;3.30;;;13.50;92.40;;;13.62;58.67;95294.81;4994058;28;20443;-57
2023/05/02 01:07:32;;;;;;;4.20;3.77;;;13.50;92.60;;;13.61;58.43;95289.66;4997839;28;21046;-64
2023/05/02 01:10:09;;;;;;;4.20;3.80;;;13.50;92.90;;;13.60;58.54;95280.91;4996541;28;20522;-73
2023/05/02 01:12:42;;;;;;;4.10;3.67;;;13.50;93.10;;;13.59;58.43;95284.53;4991952;28;20526;-72
2023/05/02 01:15:12;;;;;;;4.23;3.80;;;13.50;93.20;;;13.61;59.08;95285.19;4993711;28;20459;-56
2023/05/02 01:17:39;;;;;;;4.77;3.70;;;13.50;93.50;;;13.62;59.30;95281.59;4994527;28;20470;-57
2023/05/02 01:20:11;;;;;;;5.10;3.43;;;13.50;93.90;;;13.65;59.27;95285.75;4993022;28;20494;-72
2023/05/02 01:22:39;;;;;;;4.07;3.60;;;13.50;93.90;;;13.65;59.04;95275.19;4997224;28;20569;-73
2023/05/02 01:25:16;;;;;;;5.40;4.43;;;13.50;93.80;;;13.66;59.52;95276.81;4994169;28;20454;-57
2023/05/02 01:27:51;;;;;;;8.60;3.30;;;13.50;94.10;;;13.65;59.25;95269.91;4988982;28;20868;-57
2023/05/02 01:30:20;;;;;;;3.40;3.20;;;13.50;94.00;;;13.65;59.33;95263.75;4991593;28;20564;-56
2023/05/02 01:32:48;;;;;;;4.00;3.70;;;13.50;94.40;;;13.66;59.12;95265.44;4995676;28;21057;-58
2023/05/02 01:35:15;;;;;;;3.53;3.33;;;13.50;94.00;;;13.66;59.84;95271.53;4991771;28;20613;-73
2023/05/02 01:37:43;;;;;;;4.20;2.93;;;13.50;94.80;;;13.65;59.36;95266.41;4996090;28;20885;-57
2023/05/02 01:40:12;;;;;;;4.73;4.13;;;13.50;94.40;;;13.65;59.49;95276.97;4991851;28;21073;-72
2023/05/02 01:42:39;;;;;;;3.53;3.33;;;13.50;94.60;;;13.63;59.86;95277.97;4995029;28;20544;-57
2023/05/02 01:45:08;;;;;;;3.87;3.67;;;13.50;94.80;;;13.61;59.91;95274.63;4998330;28;20473;-56
2023/05/02 01:47:36;;;;;;;4.27;3.87;;;13.50;94.90;;;13.60;59.53;95280.91;4989903;28;20489;-72
2023/05/02 01:50:04;;;;;;;4.07;3.47;;;13.50;95.10;;;13.57;59.49;95273.28;4998172;28;20485;-71
2023/05/02 01:52:31;;;;;;;4.17;3.80;;;13.40;94.80;;;13.58;59.66;95285.50;4994119;28;20489;-62
2023/05/02 01:54:59;;;;;;;4.27;3.20;;;13.40;94.90;;;13.59;59.99;95281.88;4992950;28;20466;-72
2023/05/02 01:57:26;;;;;;;4.70;3.70;;;13.40;95.40;;;13.60;59.22;95285.34;4996801;28;20483;-73
2023/05/02 01:59:55;;;;;;;3.67;3.37;;;13.40;94.80;;;13.60;59.33;95272.97;4992853;28;20461;-62
2023/05/02 02:02:22;;;;;;;7.80;3.87;;;13.50;95.00;;;13.60;59.89;95269.50;4997197;28;20556;-58
2023/05/02 02:04:51;;;;;;;3.43;3.33;;;13.40;95.60;;;13.55;60.51;95277.88;4994076;28;20451;-57
2023/05/02 02:07:18;;;;;;;4.17;3.53;;;13.40;95.80;;;13.52;60.23;95272.88;4993770;28;20492;-57
2023/05/02 02:09:45;;;;;;;3.70;3.40;;;13.40;95.50;;;13.51;60.41;95275.66;4991962;28;20482;-58
2023/05/02 02:12:16;;;;;;;4.07;3.70;;;13.40;95.70;;;13.49;59.80;95277.63;4994952;28;20486;-57
2023/05/02 02:14:50;;;;;;;4.87;3.63;;;13.40;95.60;;;13.48;60.67;95268.03;4998191;28;20549;-72
2023/05/02 02:17:24;;;;;;;3.83;3.20;;;13.30;96.10;;;13.47;59.95;95264.56;4992775;28;21122;-73
2023/05/02 02:19:53;;;;;;;3.90;3.33;;;13.30;95.60;;;13.46;60.07;95270.81;4993829;28;20516;-58
2023/05/02 02:22:21;;;;;;;3.87;3.57;;;13.30;95.80;;;13.45;60.86;95271.81;4988772;28;20865;-73
2023/05/02 02:24:48;;;;;;;3.57;3.30;;;13.30;96.10;;;13.43;59.93;95271.97;4995444;28;20581;-74
2023/05/02 02:27:16;;;;;;;8.53;4.23;;;13.30;95.80;;;13.44;60.29;95275.44;4994328;28;20475;-73
2023/05/02 02:29:43;;;;;;;4.80;4.40;;;13.30;96.30;;;13.45;60.77;95272.63;4992962;28;20476;-57
2023/05/02 02:32:10;;;;;;;3.80;3.60;;;13.30;96.50;;;13.45;60.20;95274.47;4989470;28;20471;-58
2023/05/02 02:34:38;;;;;;;5.30;3.53;;;13.30;96.20;;;13.43;60.33;95279.03;4998616;28;20457;-72
2023/05/02 02:37:15;;;;;;;4.20;3.90;;;13.30;96.30;;;13.44;60.60;95286.81;4990756;28;20479;-71
2023/05/02 02:39:49;;;;;;;4.30;3.60;;;13.30;96.40;;;13.44;60.63;95272.78;4996605;28;20484;-57
2023/05/02 02:42:22;;;;;;;4.17;3.87;;;13.30;96.50;;;13.40;60.36;95280.19;4991967;28;20515;-56
2023/05/02 02:44:56;;;;;;;7.13;4.40;;;13.20;96.00;;;13.35;59.77;95285.06;4993250;28;20457;-74
2023/05/02 02:47:27;;;;;;;4.63;4.33;;;13.20;95.50;;;13.23;59.44;95292.34;4990564;28;20490;-58
2023/05/02 02:50:06;;;;;;;5.77;5.27;;;13.10;95.20;;;13.14;59.37;95297.66;4991639;28;20542;-72
2023/05/02 02:52:42;;;;;;;5.40;4.10;;;13.00;95.20;;;13.03;59.40;95296.03;4991314;28;20486;-70
2023/05/02 02:55:13;;;;;;;8.60;5.20;;;12.90;95.20;;;12.95;59.44;95294.13;4991569;28;20469;-72
2023/05/02 02:57:47;;;;;;;4.67;4.03;;;12.80;95.20;;;12.85;59.47;95299.41;4991081;28;20532;-73
2023/05/02 03:00:18;;;;;;;4.70;4.33;;;12.70;95.20;;;12.75;59.60;95306.53;4989615;28;21459;-72
2023/05/02 03:02:46;;;;;;;5.17;4.30;;;12.60;95.30;;;12.65;59.60;95303.88;4995698;28;20629;-73
2023/05/02 03:05:13;;;;;;;5.60;5.10;;;12.60;95.50;;;12.59;59.71;95314.19;4993339;28;20450;-57
2023/05/02 03:07:42;;;;;;;15.60;5.20;;;12.50;95.70;;;12.50;59.88;95305.31;4993006;28;20471;-74
2023/05/02 03:10:10;;;;;;;6.90;5.20;;;12.40;95.60;;;12.43;60.49;95312.13;4992848;28;20705;-73
2023/05/02 03:12:38;;;;;;;5.90;4.23;;;12.30;96.00;;;12.35;59.95;95308.38;4990385;28;20479;-71
2023/05/02 03:15:19;;;;;;;4.23;3.93;;;12.20;95.70;;;12.30;60.54;95315.88;4991035;28;20454;-58
2023/05/02 03:17:46;;;;;;;5.03;4.57;;;12.20;96.20;;;12.28;60.80;95323.09;4993881;28;20584;-72
2023/05/02 03:20:14;;;;;;;5.10;4.70;;;12.10;96.70;;;12.26;60.73;95324.22;4993080;28;20465;-56
2023/05/02 03:22:42;;;;;;;7.03;4.37;;;12.10;96.60;;;12.23;61.17;95322.69;4989211;28;21243;-73
2023/05/02 03:25:10;;;;;;;5.13;4.73;;;12.10;96.70;;;12.23;60.93;95319.22;4993034;28;21072;-58
2023/05/02 03:27:37;;;;;;;6.30;5.10;;;12.10;96.80;;;12.19;61.03;95326.56;4996589;28;20547;-58
2023/05/02 03:30:06;;;;;;;5.23;4.20;;;12.00;97.10;;;12.19;61.33;95334.47;4994029;28;20802;-58
2023/05/02 03:32:33;;;;;;;5.90;5.40;;;12.00;97.20;;;12.18;61.53;95323.09;4995669;28;20489;-74
2023/05/02 03:35:01;;;;;;;5.60;5.07;;;12.00;97.40;;;12.20;61.77;95321.13;4994291;28;20457;-75
2023/05/02 03:37:29;;;;;;;9.17;7.90;;;12.00;97.80;;;12.19;61.76;95319.50;4990633;28;20474;-74
2023/05/02 03:39:58;;;;;;;5.90;5.30;;;12.10;97.70;;;12.22;61.75;95317.53;5003979;28;20477;-74
2023/05/02 03:42:25;;;;;;;11.43;4.80;;;12.10;97.80;;;12.23;61.62;95320.03;4994176;28;20888;-74
2023/05/02 03:44:53;;;;;;;8.40;4.80;;;12.10;97.60;;;12.24;61.76;95320.88;4989731;28;20480;-75
2023/05/02 03:47:20;;;;;;;5.00;4.60;;;12.10;97.70;;;12.24;61.34;95331.41;4990017;28;20539;-74
2023/05/02 03:49:48;;;;;;;12.13;5.23;;;12.10;97.40;;;12.25;61.32;95330.44;4994842;28;20812;-57
2023/05/02 03:52:15;;;;;;;14.50;8.53;;;12.10;97.60;;;12.28;61.54;95327.53;4998665;28;20470;-75
2023/05/02 03:54:42;;;;;;;6.67;5.43;;;12.10;97.50;;;12.28;62.01;95328.34;4990975;28;20951;-59
2023/05/02 03:57:11;;;;;;;15.27;6.20;;;12.10;98.20;;;12.30;61.59;95336.13;4992856;28;20587;-57
2023/05/02 03:59:41;;;;;;;6.93;5.70;;;12.10;97.80;;;12.32;61.70;95334.22;4994041;28;20454;-74
2023/05/02 04:02:10;;;;;;;6.00;5.50;;;12.20;98.20;;;12.37;63.19;95329.34;4992124;28;20492;-58
2023/05/02 04:04:39;;;;;;;11.17;4.53;;;12.20;99.30;;;12.43;63.02;95334.06;4996676;28;20458;-73
2023/05/02 04:07:07;;;;;;;7.73;5.57;;;12.30;99.10;;;12.50;63.15;95345.72;4993694;28;20477;-75
2023/05/02 04:09:34;;;;;;;18.47;5.57;;;12.30;99.10;;;12.58;62.93;95333.63;5002109;28;20454;-74
2023/05/02 04:12:01;;;;;;;5.30;4.40;;;12.40;99.20;;;12.68;62.65;95337.91;5000457;28;20478;-59
2023/05/02 04:14:30;;;;;;;6.30;5.53;;;12.50;98.80;;;12.78;62.25;95335.28;4997515;28;20543;-56
2023/05/02 04:16:57;;;;;;;9.90;4.43;;;12.60;98.80;;;12.89;62.32;95336.94;4991889;28;20475;-75
2023/05/02 04:19:24;;;;;;;6.53;4.90;;;12.70;98.70;;;12.98;61.99;95340.50;4998760;28;20508;-76
2023/05/02 04:21:52;;;;;;;5.07;4.53;;;12.80;98.50;;;13.02;61.92;95347.16;4991030;28;20491;-58
2023/05/02 04:24:19;;;;;;;4.77;4.37;;;12.90;98.50;;;13.05;61.75;95345.06;5000587;28;21072;-76
2023/05/02 04:26:47;;;;;;;8.77;5.30;;;12.90;98.40;;;13.08;61.58;95341.31;4992386;28;20456;-77
2023/05/02 04:29:15;;;;;;;4.67;4.27;;;12.90;98.30;;;13.09;61.51;95338.53;5004192;28;20509;-76
2023/05/02 04:31:43;;;;;;;20.60;4.83;;;13.00;98.10;;;13.14;61.93;95356.59;5002334;28;20926;-59
2023/05/02 04:34:11;;;;;;;8.00;4.60;;;13.00;98.30;;;13.18;62.01;95341.28;4998892;28;20467;-76
2023/05/02 04:36:39;;;;;;;5.27;4.83;;;13.00;98.30;;;13.20;61.18;95340.16;4999661;28;20468;-75
2023/05/02 04:39:07;;;;;;;9.60;5.10;;;13.00;97.90;;;13.26;61.30;95339.59;4991258;28;20576;-58
2023/05/02 04:41:34;;;;;;;7.20;6.20;;;13.10;98.00;;;13.35;61.42;95342.34;5001630;28;20553;-70
2023/05/02 04:44:01;;;;;;;7.30;5.90;;;13.20;98.00;;;13.44;60.75;95346.78;4999307;28;20449;-75
2023/05/02 04:46:29;;;;;;;15.53;6.67;;;13.20;97.60;;;13.50;60.28;95355.94;4995297;28;20531;-75
2023/05/02 04:48:57;;;;;;;11.60;6.37;;;13.30;97.30;;;13.56;60.14;95348.25;4997082;28;20484;-56
2023/05/02 04:51:25;;;;;;;25.93;7.20;;;13.40;97.30;;;13.65;60.27;95348.34;4997517;28;20977;-58
2023/05/02 04:53:53;;;;;;;18.10;6.60;;;13.40;97.20;;;13.69;59.87;95344.44;4996887;28;20843;-75
2023/05/02 04:56:20;;;;;;;7.70;5.93;;;13.50;97.00;;;13.72;59.98;95350.25;4993792;28;20463;-75
2023/05/02 04:58:48;;;;;;;22.87;6.53;;;13.50;97.00;;;13.76;59.88;95348.16;4996174;28;20910;-57
2023/05/02 05:01:15;;;;;;;5.40;5.00;;;13.60;96.90;;;13.80;60.05;95341.56;4990959;28;20592;-73
2023/05/02 05:03:42;;;;;;;7.33;4.50;;;13.60;96.90;;;13.83;59.42;95346.56;4997463;28;21032;-56
2023/05/02 05:06:11;;;;;;;4.60;4.30;;;13.60;96.50;;;13.88;59.57;95348.78;4994154;28;20537;-56
2023/05/02 05:08:38;;;;;;;4.10;3.80;;;13.70;96.30;;;13.89;59.23;95338.03;4997176;28;20496;-72
2023/05/02 05:11:06;;;;;;;6.97;5.50;;;13.80;96.30;;;13.93;58.94;95341.25;4998095;28;20492;-71
2023/05/02 05:13:33;;;;;;;5.13;3.93;;;13.80;96.10;;;14.00;58.61;95342.28;4995711;28;20482;-56
2023/05/02 05:16:00;;;;;;;7.23;4.67;;;13.80;96.00;;;14.06;58.65;95346.16;4991600;28;20511;-58
2023/05/02 05:18:28;;;;;;;8.17;4.00;;;13.90;95.70;;;14.12;58.29;95342.91;4995419;28;20510;-69
2023/05/02 05:20:55;;;;;;;7.80;4.60;;;13.90;95.40;;;14.17;58.25;95343.28;4992843;28;20465;-57
2023/05/02 05:23:24;;;;;;;4.83;4.43;;;14.00;95.30;;;14.26;58.11;95347.69;4993641;28;20475;-58
2023/05/02 05:25:51;;;;;;;4.50;4.20;;;14.10;95.10;;;14.33;57.46;95338.16;4997721;28;20463;-71
2023/05/02 05:28:18;;;;;;;7.47;4.90;;;14.10;94.60;;;14.41;57.48;95342.72;5002337;28;20486;-73
2023/05/02 05:30:45;;;;;;;10.47;4.40;;;14.20;94.60;;;14.54;56.86;95352.91;4995496;28;20458;-72
2023/05/02 05:33:13;;;;;;;4.40;4.00;;;14.30;94.20;;;14.65;56.64;95347.38;4996611;28;20494;-73
2023/05/02 05:35:41;;;;;;;13.87;4.20;;;14.40;93.90;;;14.82;56.40;95348.34;4996795;28;20977;-57
2023/05/02 05:38:08;;;;;;;8.53;4.03;;;14.60;94.00;;;15.00;55.76;95352.81;4995103;28;20478;-58
2023/05/02 05:40:37;;;;;;;3.97;3.13;;;14.70;93.40;;;15.16;55.11;95349.41;4995034;28;20454;-72
2023/05/02 05:43:04;;;;;;;5.10;4.03;;;14.90;93.00;;;15.34;54.95;95352.00;4990164;28;20494;-57
2023/05/02 05:45:31;;;;;;;5.87;3.27;;;15.10;92.60;;;15.52;53.83;95354.56;4997973;28;20458;-58
2023/05/02 05:47:58;;;;;;;3.87;3.40;;;15.20;91.80;;;15.66;53.13;95356.66;4992701;28;20475;-74
2023/05/02 05:50:26;;;;;;;6.43;3.60;;;15.40;91.00;;;15.78;53.07;95389.03;4995373;28;20466;-56
2023/05/02 05:52:53;;;;;;;5.57;3.40;;;15.50;90.90;;;15.87;52.75;95358.91;4999303;28;20808;-57
2023/05/02 05:55:20;;;;;;;4.43;2.97;;;15.60;90.50;;;15.93;52.10;95368.06;4992739;28;20568;-57
2023/05/02 05:57:49;;;;;;;8.70;3.50;;;15.70;89.50;;;16.03;51.31;95371.38;4997977;28;20476;-73
2023/05/02 06:00:17;;;;;;;3.23;3.00;;;15.80;88.40;;;16.12;51.56;95361.63;4993779;28;20870;-59
2023/05/02 06:02:45;;;;;;;6.53;2.80;;;15.90;88.10;;;16.13;50.90;95365.97;4993673;28;20497;-58
2023/05/02 06:05:12;;;;;;;5.10;3.63;;;15.90;86.50;;;16.12;51.19;95366.94;4995863;28;20454;-73
2023/05/02 06:07:39;;;;;;;4.43;3.20;;;15.90;86.50;;;16.22;50.85;95370.28;4992556;28;20485;-73
2023/05/02 06:10:08;;;;;;;3.10;2.90;;;16.00;86.40;;;16.30;50.93;95366.81;4996125;28;20461;-58
2023/05/02 06:12:35;;;;;;;5.10;3.10;;;16.10;86.00;;;16.40;50.36;95379.94;4997804;28;20624;-58
2023/05/02 06:15:05;;;;;;;3.90;3.70;;;16.10;85.00;;;16.47;50.31;95383.63;4992739;28;20888;-58
2023/05/02 06:17:32;;;;;;;6.57;3.47;;;16.20;84.60;;;16.56;50.12;95369.34;4993608;28;20610;-57
2023/05/02 06:19:59;;;;;;;6.00;3.03;;;16.30;84.00;;;16.69;49.90;95363.53;4997583;28;20966;-72
2023/05/02 06:22:27;;;;;;;7.37;3.20;;;16.40;83.60;;;16.81;49.16;95361.41;4990683;28;20573;-74
2023/05/02 06:24:54;;;;;;;3.73;3.33;;;16.50;82.50;;;16.93;49.34;95356.59;4994751;28;20480;-73
2023/05/02 06:27:22;;;;;;;5.60;3.30;;;16.60;82.60;;;17.05;49.16;95349.13;4993164;28;20481;-57
2023/05/02 06:29:51;;;;;;;7.17;3.90;;;16.80;82.70;;;17.24;49.36;95351.41;4991842;28;20458;-57
2023/05/02 06:32:20;;;;;;;13.47;3.40;;;16.90;82.00;;;17.39;48.47;95365.66;4990264;28;20486;-57
2023/05/02 06:34:47;;;;;;;5.20;3.17;;;17.10;81.10;;;17.59;48.29;95357.31;4991397;28;21029;-73
2023/05/02 06:37:15;;;;;;;6.20;3.40;;;17.20;80.70;;;17.76;48.56;95360.75;4996726;28;20538;-73
2023/05/02 06:39:42;;;;;;;3.90;3.60;;;17.50;80.40;;;17.95;47.64;95356.84;4992634;28;20486;-57
2023/05/02 06:42:09;;;;;;;12.20;3.53;;;17.60;79.10;;;18.19;47.81;95355.91;4989244;28;20499;-56
2023/05/02 06:44:36;;;;;;;9.17;3.57;;;17.80;78.80;;;18.43;46.97;95351.44;4997636;28;20512;-57
2023/05/02 06:47:05;;;;;;;6.97;3.27;;;18.00;77.70;;;18.63;45.69;95357.13;4996359;28;20485;-58
2023/05/02 06:49:34;;;;;;;4.37;3.57;;;18.20;75.40;;;18.72;45.84;95365.91;4998801;28;20466;-58
2023/05/02 06:52:01;;;;;;;6.70;3.43;;;18.40;74.30;;;18.78;46.09;95350.00;4994161;28;20817;-56
2023/05/02 06:54:28;;;;;;;4.20;2.93;;;18.50;74.80;;;18.94;45.25;95351.75;4992447;28;20537;-56
2023/05/02 06:56:55;;;;;;;3.00;2.80;;;18.60;73.80;;;19.12;45.05;95355.94;4992238;28;20481;-58
2023/05/02 06:59:23;;;;;;;3.83;2.50;;;18.80;72.10;;;19.26;44.56;95355.13;4992277;28;20470;-73
2023/05/02 07:01:50;;;;;;;5.50;3.13;;;18.90;71.30;;;19.33;43.47;95361.41;4993288;28;20489;-73
2023/05/02 07:04:17;;;;;;;5.10;2.20;;;19.00;69.10;;;19.30;43.58;95351.09;4990128;28;20450;-58
2023/05/02 07:06:46;;;;;;;4.67;2.57;;;19.10;69.20;;;19.39;43.35;95367.00;4993109;28;20492;-57
2023/05/02 07:09:14;;;;;;;3.23;2.93;;;19.10;68.50;;;19.50;42.95;95358.53;4990755;28;20450;-73
2023/05/02 07:11:41;;;;;;;3.53;3.23;;;19.20;67.50;;;19.58;42.65;95355.81;4995335;28;20825;-56
2023/05/02 07:14:08;;;;;;;2.73;2.63;;;19.20;66.80;;;19.64;42.62;95360.41;4994589;28;20473;-74
2023/05/02 07:16:35;;;;;;;3.23;2.90;;;19.30;67.00;;;19.70;42.57;95362.34;4992997;28;20515;-56
2023/05/02 07:19:05;;;;;;;3.60;3.30;;;19.40;66.00;;;19.81;42.52;95370.91;4994390;28;20972;-75
2023/05/02 07:21:32;;;;;;;3.63;3.00;;;19.50;66.10;;;19.90;41.55;95364.47;4995469;28;20559;-73
2023/05/02 07:24:02;;;;;;;3.53;2.80;;;19.60;64.40;;;19.94;42.23;95359.56;4990982;28;20453;-71
2023/05/02 07:26:29;;;;;;;3.57;2.73;;;19.60;64.90;;;20.15;41.74;95367.66;4994664;28;20449;-57
2023/05/02 07:28:56;;;;;;;5.63;2.97;;;19.80;64.40;;;20.37;41.33;95365.03;4994480;28;20471;-73
2023/05/02 07:31:24;;;;;;;4.90;2.93;;;20.00;63.80;;;20.52;40.35;95351.63;4994885;28;20797;-73
2023/05/02 07:33:51;;;;;;;4.30;2.77;;;20.10;61.40;;;20.66;40.80;95350.75;4990870;28;20479;-57
2023/05/02 07:36:18;;;;;;;3.53;2.80;;;20.30;62.70;;;20.90;40.21;95357.56;4993374;28;20535;-56
2023/05/02 07:38:45;;;;;;;6.53;3.43;;;20.50;61.50;;;21.07;39.73;95360.81;4994445;28;20473;-57
2023/05/02 07:41:15;;;;;;;4.87;2.43;;;20.70;60.60;;;21.26;39.18;95359.31;4993132;28;20471;-76
2023/05/02 07:43:42;;;;;;;7.43;2.57;;;20.90;60.20;;;21.43;38.94;95365.19;4994138;28;20509;-57
2023/05/02 07:46:10;;;;;;;12.57;2.97;;;21.00;59.20;;;21.63;39.19;95360.00;4996144;28;21140;-57
2023/05/02 07:48:37;;;;;;;3.00;2.70;;;21.20;59.30;;;21.81;38.54;95362.19;4999142;28;20483;-57
2023/05/02 07:51:08;;;;;;;5.70;2.90;;;21.40;58.40;;;21.90;37.92;95364.69;4994787;28;20450;-56
2023/05/02 07:53:35;;;;;;;4.90;2.70;;;21.50;57.30;;;21.93;37.87;95367.78;4997574;28;20590;-56
2023/05/02 07:56:04;;;;;;;2.93;2.60;;;21.60;56.80;;;22.00;37.80;95359.78;4994900;28;20462;-72
2023/05/02 07:58:32;;;;;;;3.23;2.63;;;21.70;56.70;;;22.19;37.39;95363.56;4997085;28;20886;-73
2023/05/02 08:01:00;;;;;;;8.33;3.07;;;21.90;56.90;;;22.45;36.83;95362.03;4998478;28;20878;-58
2023/05/02 08:03:28;;;;;;;4.77;2.90;;;22.00;56.20;;;22.61;36.78;95361.69;4995147;28;21275;-74
2023/05/02 08:05:55;;;;;;;3.13;2.80;;;22.20;55.70;;;22.77;37.64;95344.38;4998809;28;20457;-74
2023/05/02 08:08:22;;;;;;;5.67;3.10;;;22.40;56.50;;;23.08;36.00;95364.41;4995242;28;20485;-58
2023/05/02 08:10:50;;;;;;;8.13;2.53;;;22.60;55.20;;;23.27;35.45;95358.25;5002747;28;20769;-55
2023/05/02 08:13:17;;;;;;;4.90;2.20;;;22.80;54.30;;;23.39;35.27;95357.63;5002557;28;20533;-73
2023/05/02 08:15:46;;;;;;;3.60;2.47;;;23.00;54.20;;;23.57;34.46;95360.50;4992706;28;20469;-75
2023/05/02 08:18:13;;;;;;;7.47;3.07;;;23.10;52.30;;;23.71;35.32;95361.31;4998376;28;20536;-57
2023/05/02 08:20:40;;;;;;;8.63;2.93;;;23.30;53.10;;;23.81;34.60;95355.47;4999333;28;20831;-74
2023/05/02 08:23:08;;;;;;;2.90;2.37;;;23.40;52.70;;;23.93;34.42;95353.84;4994327;28;20497;-58
2023/05/02 08:25:35;;;;;;;3.43;2.27;;;23.50;52.30;;;23.96;34.58;95348.03;4996948;28;20454;-58
2023/05/02 08:28:02;;;;;;;2.70;2.30;;;23.60;52.10;;;24.08;35.30;95356.28;4998234;28;20815;-57
2023/05/02 08:30:29;;;;;;;7.27;2.60;;;23.70;52.40;;;24.33;33.97;95367.13;4992676;28;20454;-75
2023/05/02 08:32:58;;;;;;;2.70;2.00;;;23.90;52.00;;;24.32;33.71;95349.34;4995674;28;20474;-57
2023/05/02 08:35:25;;;;;;;8.40;2.40;;;23.90;50.20;;;24.19;33.53;95362.03;4991865;28;20453;-57
2023/05/02 08:37:53;;;;;;;5.10;2.47;;;23.90;50.10;;;24.12;34.18;95357.50;4996284;28;20474;-57
2023/05/02 08:40:20;;;;;;;5.33;3.00;;;23.90;50.60;;;24.17;33.66;95351.50;4996368;28;20454;-58
2023/05/02 08:42:47;;;;;;;3.27;2.23;;;23.90;50.70;;;24.30;33.17;95356.78;4995439;28;20624;-75
2023/05/02 08:45:15;;;;;;;3.30;2.53;;;23.90;50.00;;;24.41;33.32;95354.47;4997195;28;20465;-57
2023/05/02 08:47:43;;;;;;;6.50;2.23;;;24.00;50.40;;;24.65;33.51;95345.69;4995289;28;20535;-57
2023/05/02 08:50:12;;;;;;;5.57;2.33;;;24.20;50.20;;;24.90;33.00;95350.28;4994499;28;21095;-75
2023/05/02 08:52:39;;;;;;;2.23;2.03;;;24.40;50.00;;;25.05;32.60;95356.19;5000398;28;20477;-74
2023/05/02 08:55:07;;;;;;;2.60;2.40;;;24.60;48.80;;;24.98;31.54;95349.22;4988533;28;20504;-56
2023/05/02 08:57:35;;;;;;;3.13;2.57;;;24.60;48.20;;;24.96;32.56;95345.91;5000429;28;20553;-74
2023/05/02 09:00:03;;;;;;;5.60;2.23;;;24.60;48.80;;;25.10;31.83;95342.06;4991912;28;20544;-74
2023/05/02 09:02:45;;;;;;;2.60;2.40;;;24.70;48.20;;;25.41;32.11;95337.69;4990241;28;21345;-57
2023/05/02 09:05:14;;;;;;;11.13;2.60;;;24.90;48.60;;;25.80;32.02;95335.66;4990483;28;20962;-57
2023/05/02 09:07:46;;;;;;;2.37;1.93;;;25.20;48.20;;;26.07;32.05;95335.38;4997593;28;20474;-58
2023/05/02 09:10:13;;;;;;;6.60;3.20;;;25.60;48.00;;;26.34;31.53;95329.69;4990547;28;20540;-75
2023/05/02 09:12:40;;;;;;;3.80;2.20;;;25.80;47.70;;;26.51;30.99;95332.53;4994928;28;20998;-58
2023/05/02 09:15:12;;;;;;;2.17;2.07;;;26.00;47.20;;;26.69;30.09;95343.31;4994954;28;20532;-58
2023/05/02 09:17:43;;;;;;;2.77;2.27;;;26.10;45.50;;;26.61;30.33;95336.31;4992189;28;20475;-57
2023/05/02 09:20:13;;;;;;;6.53;2.60;;;26.10;46.10;;;26.30;30.19;95338.22;4998564;28;20537;-75
2023/05/02 09:22:47;;;;;;;2.10;2.00;;;25.90;45.30;;;25.93;31.03;95329.28;4995043;28;20496;-60
2023/05/02 09:25:15;;;;;;;4.50;2.50;;;25.70;45.80;;;25.57;31.14;95326.34;4996928;28;20848;-75
2023/05/02 09:27:52;;;;;;;4.30;2.33;;;25.30;45.80;;;25.21;30.88;95332.47;4994157;28;20473;-58
2023/05/02 09:30:22;;;;;;;5.67;2.67;;;25.00;46.20;;;24.78;31.73;95328.63;4998525;28;20461;-57
2023/05/02 09:32:51;;;;;;;5.67;2.40;;;24.60;46.60;;;24.43;32.32;95328.19;4995467;28;21001;-57
2023/05/02 09:35:23;;;;;;;3.00;2.50;;;24.20;47.00;;;24.05;31.62;95329.81;4994571;28;20977;-75
2023/05/02 09:37:52;;;;;;;5.63;2.33;;;23.80;46.60;;;23.70;32.80;95326.59;4995365;28;20952;-58
2023/05/02 09:40:20;;;;;;;2.30;2.10;;;23.50;47.20;;;23.37;32.71;95328.31;4997796;28;20481;-58
2023/05/02 09:42:47;;;;;;;1.87;1.77;;;23.20;47.60;;;23.07;32.90;95326.03;4994031;28;20493;-75
2023/05/02 09:45:22;;;;;;;5.83;2.70;;;22.90;47.80;;;22.86;33.79;95326.22;4995659;28;20495;-74
2023/05/02 09:47:49;;;;;;;2.60;2.40;;;22.70;48.30;;;22.70;33.70;95317.56;4999376;28;20492;-74
2023/05/02 09:50:37;;;;;;;2.10;1.90;;;22.50;48.60;;;22.56;33.32;95305.97;4990905;28;21146;-74
2023/05/02 09:53:05;;;;;;;1.90;1.80;;;22.30;48.50;;;22.56;33.27;95321.25;4994826;28;20465;-76
2023/05/02 09:55:33;;;;;;;3.40;1.90;;;22.30;48.60;;;22.61;34.17;95323.31;4996022;28;20487;-73
2023/05/02 09:58:00;;;;;;;5.17;2.63;;;22.30;48.90;;;22.74;33.93;95309.91;4993785;28;20477;-75
2023/05/02 10:00:52;;;;;;;3.57;2.63;;;22.30;48.90;;;22.88;33.24;95321.47;4996048;28;20513;-58
2023/05/02 10:03:19;;;;;;;6.23;2.70;;;22.50;48.40;;;22.84;32.47;95314.91;4969350;28;20504;-58
2023/05/02 10:05:48;;;;;;;6.20;2.57;;;22.50;47.60;;;22.81;33.28;95313.44;4995509;28;20459;-75
2023/05/02 10:08:16;;;;;;;7.00;1.93;;;22.50;48.40;;;22.89;33.25;95321.28;4993852;28;20465;-75
2023/05/02 10:10:47;;;;;;;1.70;1.60;;;22.50;48.30;;;23.07;32.96;95306.44;4994542;28;20450;-58
2023/05/02 10:13:14;;;;;;;3.20;1.60;;;22.70;48.60;;;23.36;33.11;95305.19;4995259;28;20886;-60
2023/05/02 10:15:43;;;;;;;2.50;2.30;;;22.90;48.70;;;23.73;32.56;95305.50;4990707;28;20459;-58
2023/05/02 10:18:14;;;;;;;2.17;2.07;;;23.20;48.10;;;24.06;31.89;95298.38;4992799;28;20554;-58
2023/05/02 10:20:51;;;;;;;2.70;2.37;;;23.50;47.40;;;24.16;32.51;95291.50;4995545;28;20541;-56
2023/05/02 10:23:20;;;;;;;7.00;2.27;;;23.70;47.50;;;24.25;32.10;95289.41;4990430;28;20504;-58